sensor_id;sensor_type;location;lat;lon;timestamp;P1;durP1;ratioP1;P2;durP2;ratioP2
21430;SDS011;10876;49.038;10.608;2023-11-19T00:01:48;1.85;;;1.70;;
21430;SDS011;10876;49.038;10.608;2023-11-19T00:04:15;4.32;;;2.70;;
21430;SDS011;10876;49.038;10.608;2023-11-19T00:06:42;6.13;;;3.08;;
21430;SDS011;10876;49.038;10.608;2023-11-19T00:09:32;4.32;;;3.08;;
21430;SDS011;10876;49.038;10.608;2023-11-19T00:12:05;2.42;;;1.92;;
21430;SDS011;10876;49.038;10.608;2023-11-19T00:14:34;3.40;;;2.08;;
21430;SDS011;10876;49.038;10.608;2023-11-19T00:17:04;4.28;;;2.42;;
21430;SDS011;10876;49.038;10.608;2023-11-19T00:19:31;4.15;;;3.30;;
21430;SDS011;10876;49.038;10.608;2023-11-19T00:22:07;4.03;;;2.47;;
21430;SDS011;10876;49.038;10.608;2023-11-19T00:27:38;3.63;;;2.42;;
21430;SDS011;10876;49.038;10.608;2023-11-19T00:33:05;3.63;;;2.80;;
21430;SDS011;10876;49.038;10.608;2023-11-19T00:35:32;3.20;;;2.13;;
21430;SDS011;10876;49.038;10.608;2023-11-19T00:37:59;4.60;;;3.28;;
21430;SDS011;10876;49.038;10.608;2023-11-19T00:40:26;3.90;;;2.38;;
21430;SDS011;10876;49.038;10.608;2023-11-19T00:42:52;5.88;;;3.30;;
21430;SDS011;10876;49.038;10.608;2023-11-19T00:45:19;8.38;;;4.10;;
21430;SDS011;10876;49.038;10.608;2023-11-19T00:47:46;3.63;;;2.50;;
21430;SDS011;10876;49.038;10.608;2023-11-19T00:50:14;3.47;;;2.22;;
21430;SDS011;10876;49.038;10.608;2023-11-19T00:52:40;8.25;;;4.07;;
21430;SDS011;10876;49.038;10.608;2023-11-19T00:55:07;5.93;;;3.72;;
21430;SDS011;10876;49.038;10.608;2023-11-19T00:57:34;5.57;;;3.08;;
21430;SDS011;10876;49.038;10.608;2023-11-19T01:00:01;4.10;;;2.80;;
21430;SDS011;10876;49.038;10.608;2023-11-19T01:02:29;4.10;;;2.78;;
21430;SDS011;10876;49.038;10.608;2023-11-19T01:04:55;6.20;;;2.72;;
21430;SDS011;10876;49.038;10.608;2023-11-19T01:07:23;5.95;;;3.22;;
21430;SDS011;10876;49.038;10.608;2023-11-19T01:09:51;5.28;;;3.25;;
21430;SDS011;10876;49.038;10.608;2023-11-19T01:12:19;3.42;;;2.58;;
21430;SDS011;10876;49.038;10.608;2023-11-19T01:14:46;7.97;;;3.30;;
21430;SDS011;10876;49.038;10.608;2023-11-19T01:17:12;4.60;;;2.65;;
21430;SDS011;10876;49.038;10.608;2023-11-19T01:19:39;7.95;;;3.88;;
21430;SDS011;10876;49.038;10.608;2023-11-19T01:22:09;5.90;;;3.40;;
21430;SDS011;10876;49.038;10.608;2023-11-19T01:24:37;6.95;;;3.35;;
21430;SDS011;10876;49.038;10.608;2023-11-19T01:27:04;4.28;;;2.75;;
21430;SDS011;10876;49.038;10.608;2023-11-19T01:29:30;4.65;;;3.47;;
21430;SDS011;10876;49.038;10.608;2023-11-19T01:31:57;6.88;;;3.60;;
21430;SDS011;10876;49.038;10.608;2023-11-19T01:34:24;7.03;;;3.80;;
21430;SDS011;10876;49.038;10.608;2023-11-19T01:36:51;4.88;;;3.28;;
21430;SDS011;10876;49.038;10.608;2023-11-19T01:39:18;5.28;;;3.47;;
21430;SDS011;10876;49.038;10.608;2023-11-19T01:41:46;7.55;;;4.25;;
21430;SDS011;10876;49.038;10.608;2023-11-19T01:44:15;7.78;;;4.03;;
21430;SDS011;10876;49.038;10.608;2023-11-19T01:46:42;7.38;;;4.05;;
21430;SDS011;10876;49.038;10.608;2023-11-19T01:49:10;4.10;;;3.45;;
21430;SDS011;10876;49.038;10.608;2023-11-19T01:51:37;5.57;;;3.58;;
21430;SDS011;10876;49.038;10.608;2023-11-19T01:54:04;3.17;;;2.22;;
21430;SDS011;10876;49.038;10.608;2023-11-19T01:56:31;5.65;;;3.90;;
21430;SDS011;10876;49.038;10.608;2023-11-19T01:58:59;5.72;;;3.60;;
21430;SDS011;10876;49.038;10.608;2023-11-19T02:01:26;4.05;;;3.08;;
21430;SDS011;10876;49.038;10.608;2023-11-19T02:03:55;6.57;;;4.15;;
21430;SDS011;10876;49.038;10.608;2023-11-19T02:06:23;6.70;;;3.75;;
21430;SDS011;10876;49.038;10.608;2023-11-19T02:08:51;3.72;;;2.65;;
21430;SDS011;10876;49.038;10.608;2023-11-19T02:11:17;4.00;;;2.95;;
21430;SDS011;10876;49.038;10.608;2023-11-19T02:13:44;3.80;;;2.83;;
21430;SDS011;10876;49.038;10.608;2023-11-19T02:16:12;4.85;;;3.60;;
21430;SDS011;10876;49.038;10.608;2023-11-19T02:18:39;4.30;;;2.92;;
21430;SDS011;10876;49.038;10.608;2023-11-19T02:21:06;6.78;;;3.83;;
21430;SDS011;10876;49.038;10.608;2023-11-19T02:23:32;5.00;;;3.13;;
21430;SDS011;10876;49.038;10.608;2023-11-19T02:26:03;7.82;;;3.97;;
21430;SDS011;10876;49.038;10.608;2023-11-19T02:28:33;3.65;;;2.42;;
21430;SDS011;10876;49.038;10.608;2023-11-19T02:31:00;4.82;;;3.53;;
21430;SDS011;10876;49.038;10.608;2023-11-19T02:33:27;5.43;;;3.83;;
21430;SDS011;10876;49.038;10.608;2023-11-19T02:35:54;4.55;;;3.17;;
21430;SDS011;10876;49.038;10.608;2023-11-19T02:38:21;6.40;;;3.15;;
21430;SDS011;10876;49.038;10.608;2023-11-19T02:40:48;8.15;;;3.58;;
21430;SDS011;10876;49.038;10.608;2023-11-19T02:43:15;6.00;;;2.80;;
21430;SDS011;10876;49.038;10.608;2023-11-19T02:45:43;6.45;;;4.35;;
21430;SDS011;10876;49.038;10.608;2023-11-19T02:48:11;4.45;;;2.63;;
21430;SDS011;10876;49.038;10.608;2023-11-19T02:50:39;3.67;;;2.83;;
21430;SDS011;10876;49.038;10.608;2023-11-19T02:53:06;5.45;;;3.72;;
21430;SDS011;10876;49.038;10.608;2023-11-19T02:55:33;5.68;;;3.40;;
21430;SDS011;10876;49.038;10.608;2023-11-19T02:58:03;3.88;;;2.55;;
21430;SDS011;10876;49.038;10.608;2023-11-19T03:00:34;5.75;;;2.38;;
21430;SDS011;10876;49.038;10.608;2023-11-19T03:03:09;3.53;;;2.53;;
21430;SDS011;10876;49.038;10.608;2023-11-19T03:05:45;4.30;;;2.65;;
21430;SDS011;10876;49.038;10.608;2023-11-19T03:08:12;3.80;;;3.20;;
21430;SDS011;10876;49.038;10.608;2023-11-19T03:10:39;3.08;;;2.22;;
21430;SDS011;10876;49.038;10.608;2023-11-19T03:13:05;5.60;;;3.25;;
21430;SDS011;10876;49.038;10.608;2023-11-19T03:15:38;3.55;;;2.50;;
21430;SDS011;10876;49.038;10.608;2023-11-19T03:18:05;3.97;;;2.47;;
21430;SDS011;10876;49.038;10.608;2023-11-19T03:20:34;3.33;;;2.30;;
21430;SDS011;10876;49.038;10.608;2023-11-19T03:23:01;4.95;;;2.50;;
21430;SDS011;10876;49.038;10.608;2023-11-19T03:25:27;4.00;;;2.88;;
21430;SDS011;10876;49.038;10.608;2023-11-19T03:27:58;3.70;;;2.42;;
21430;SDS011;10876;49.038;10.608;2023-11-19T03:30:25;5.53;;;2.63;;
21430;SDS011;10876;49.038;10.608;2023-11-19T03:32:53;5.00;;;3.10;;
21430;SDS011;10876;49.038;10.608;2023-11-19T03:35:20;3.58;;;2.28;;
21430;SDS011;10876;49.038;10.608;2023-11-19T03:37:51;6.25;;;2.58;;
21430;SDS011;10876;49.038;10.608;2023-11-19T03:40:18;4.93;;;2.85;;
21430;SDS011;10876;49.038;10.608;2023-11-19T03:42:45;4.35;;;2.88;;
21430;SDS011;10876;49.038;10.608;2023-11-19T03:45:12;2.60;;;1.95;;
21430;SDS011;10876;49.038;10.608;2023-11-19T03:47:39;5.38;;;3.15;;
21430;SDS011;10876;49.038;10.608;2023-11-19T03:50:06;3.25;;;2.25;;
21430;SDS011;10876;49.038;10.608;2023-11-19T03:52:34;3.60;;;2.67;;
21430;SDS011;10876;49.038;10.608;2023-11-19T03:55:02;4.70;;;2.67;;
21430;SDS011;10876;49.038;10.608;2023-11-19T03:57:30;4.28;;;2.20;;
21430;SDS011;10876;49.038;10.608;2023-11-19T03:59:56;5.00;;;2.22;;
21430;SDS011;10876;49.038;10.608;2023-11-19T04:02:24;4.53;;;2.35;;
21430;SDS011;10876;49.038;10.608;2023-11-19T04:04:53;2.55;;;1.73;;
21430;SDS011;10876;49.038;10.608;2023-11-19T04:07:19;3.88;;;2.17;;
21430;SDS011;10876;49.038;10.608;2023-11-19T04:09:46;4.15;;;1.90;;
21430;SDS011;10876;49.038;10.608;2023-11-19T04:12:14;2.92;;;2.00;;
21430;SDS011;10876;49.038;10.608;2023-11-19T04:14:41;3.60;;;2.50;;
21430;SDS011;10876;49.038;10.608;2023-11-19T04:17:07;5.03;;;1.90;;
21430;SDS011;10876;49.038;10.608;2023-11-19T04:19:34;4.78;;;2.38;;
21430;SDS011;10876;49.038;10.608;2023-11-19T04:22:01;1.90;;;1.70;;
21430;SDS011;10876;49.038;10.608;2023-11-19T04:24:28;6.18;;;3.10;;
21430;SDS011;10876;49.038;10.608;2023-11-19T04:26:54;3.08;;;2.42;;
21430;SDS011;10876;49.038;10.608;2023-11-19T04:29:22;3.15;;;2.22;;
21430;SDS011;10876;49.038;10.608;2023-11-19T04:31:49;3.17;;;2.65;;
21430;SDS011;10876;49.038;10.608;2023-11-19T04:34:16;4.18;;;2.58;;
21430;SDS011;10876;49.038;10.608;2023-11-19T04:36:42;2.92;;;2.28;;
21430;SDS011;10876;49.038;10.608;2023-11-19T04:39:09;5.13;;;2.85;;
21430;SDS011;10876;49.038;10.608;2023-11-19T04:41:45;4.55;;;2.17;;
21430;SDS011;10876;49.038;10.608;2023-11-19T04:44:11;2.15;;;1.95;;
21430;SDS011;10876;49.038;10.608;2023-11-19T04:46:39;4.20;;;2.28;;
21430;SDS011;10876;49.038;10.608;2023-11-19T04:49:15;3.38;;;2.58;;
21430;SDS011;10876;49.038;10.608;2023-11-19T04:51:43;2.50;;;1.92;;
21430;SDS011;10876;49.038;10.608;2023-11-19T04:54:11;2.70;;;2.40;;
21430;SDS011;10876;49.038;10.608;2023-11-19T04:56:45;4.05;;;2.38;;
21430;SDS011;10876;49.038;10.608;2023-11-19T04:59:20;4.63;;;2.85;;
21430;SDS011;10876;49.038;10.608;2023-11-19T05:01:48;3.30;;;2.30;;
21430;SDS011;10876;49.038;10.608;2023-11-19T05:04:14;3.78;;;2.08;;
21430;SDS011;10876;49.038;10.608;2023-11-19T05:06:41;3.08;;;2.45;;
21430;SDS011;10876;49.038;10.608;2023-11-19T05:09:08;2.83;;;1.92;;
21430;SDS011;10876;49.038;10.608;2023-11-19T05:11:37;3.60;;;2.00;;
21430;SDS011;10876;49.038;10.608;2023-11-19T05:14:04;3.28;;;2.15;;
21430;SDS011;10876;49.038;10.608;2023-11-19T05:16:31;2.50;;;2.05;;
21430;SDS011;10876;49.038;10.608;2023-11-19T05:18:59;3.38;;;2.50;;
21430;SDS011;10876;49.038;10.608;2023-11-19T05:21:26;1.67;;;1.33;;
21430;SDS011;10876;49.038;10.608;2023-11-19T05:23:54;1.77;;;1.65;;
21430;SDS011;10876;49.038;10.608;2023-11-19T05:26:24;2.03;;;1.30;;
21430;SDS011;10876;49.038;10.608;2023-11-19T05:28:50;2.33;;;0.98;;
21430;SDS011;10876;49.038;10.608;2023-11-19T05:31:17;1.40;;;1.30;;
21430;SDS011;10876;49.038;10.608;2023-11-19T05:33:44;1.75;;;1.42;;
21430;SDS011;10876;49.038;10.608;2023-11-19T05:36:12;2.33;;;1.52;;
21430;SDS011;10876;49.038;10.608;2023-11-19T05:38:39;3.42;;;1.92;;
21430;SDS011;10876;49.038;10.608;2023-11-19T05:41:05;2.75;;;1.60;;
21430;SDS011;10876;49.038;10.608;2023-11-19T05:43:33;2.60;;;1.52;;
21430;SDS011;10876;49.038;10.608;2023-11-19T05:46:00;2.60;;;1.85;;
21430;SDS011;10876;49.038;10.608;2023-11-19T05:48:31;3.50;;;2.25;;
21430;SDS011;10876;49.038;10.608;2023-11-19T05:50:58;0.70;;;0.68;;
21430;SDS011;10876;49.038;10.608;2023-11-19T05:53:28;2.35;;;1.67;;
21430;SDS011;10876;49.038;10.608;2023-11-19T05:56:19;2.05;;;1.63;;
21430;SDS011;10876;49.038;10.608;2023-11-19T05:58:46;2.92;;;1.48;;
21430;SDS011;10876;49.038;10.608;2023-11-19T06:01:14;1.83;;;1.20;;
21430;SDS011;10876;49.038;10.608;2023-11-19T06:03:41;1.23;;;1.05;;
21430;SDS011;10876;49.038;10.608;2023-11-19T06:06:08;1.33;;;1.00;;
21430;SDS011;10876;49.038;10.608;2023-11-19T06:08:38;1.13;;;1.02;;
21430;SDS011;10876;49.038;10.608;2023-11-19T06:11:06;0.45;;;0.40;;
21430;SDS011;10876;49.038;10.608;2023-11-19T06:13:33;0.32;;;0.32;;
21430;SDS011;10876;49.038;10.608;2023-11-19T06:16:00;0.40;;;0.40;;
21430;SDS011;10876;49.038;10.608;2023-11-19T06:18:28;0.30;;;0.30;;
21430;SDS011;10876;49.038;10.608;2023-11-19T06:20:56;0.40;;;0.32;;
21430;SDS011;10876;49.038;10.608;2023-11-19T06:23:23;0.40;;;0.35;;
21430;SDS011;10876;49.038;10.608;2023-11-19T06:25:51;0.75;;;0.40;;
21430;SDS011;10876;49.038;10.608;2023-11-19T06:28:18;0.20;;;0.20;;
21430;SDS011;10876;49.038;10.608;2023-11-19T06:30:45;0.40;;;0.40;;
21430;SDS011;10876;49.038;10.608;2023-11-19T06:33:12;0.40;;;0.35;;
21430;SDS011;10876;49.038;10.608;2023-11-19T06:35:39;0.20;;;0.20;;
21430;SDS011;10876;49.038;10.608;2023-11-19T06:38:06;0.20;;;0.20;;
21430;SDS011;10876;49.038;10.608;2023-11-19T06:40:32;0.22;;;0.22;;
21430;SDS011;10876;49.038;10.608;2023-11-19T06:43:01;0.40;;;0.40;;
21430;SDS011;10876;49.038;10.608;2023-11-19T06:45:28;0.20;;;0.20;;
21430;SDS011;10876;49.038;10.608;2023-11-19T06:47:55;0.40;;;0.40;;
21430;SDS011;10876;49.038;10.608;2023-11-19T06:50:22;0.40;;;0.40;;
21430;SDS011;10876;49.038;10.608;2023-11-19T06:52:49;0.50;;;0.50;;
21430;SDS011;10876;49.038;10.608;2023-11-19T06:55:20;0.60;;;0.60;;
21430;SDS011;10876;49.038;10.608;2023-11-19T06:58:07;0.40;;;0.40;;
21430;SDS011;10876;49.038;10.608;2023-11-19T07:00:33;0.35;;;0.32;;
21430;SDS011;10876;49.038;10.608;2023-11-19T07:03:01;0.35;;;0.30;;
21430;SDS011;10876;49.038;10.608;2023-11-19T07:05:27;0.32;;;0.32;;
21430;SDS011;10876;49.038;10.608;2023-11-19T07:07:55;0.43;;;0.40;;
21430;SDS011;10876;49.038;10.608;2023-11-19T07:10:21;0.30;;;0.30;;
21430;SDS011;10876;49.038;10.608;2023-11-19T07:12:48;0.55;;;0.30;;
21430;SDS011;10876;49.038;10.608;2023-11-19T07:15:17;0.22;;;0.22;;
21430;SDS011;10876;49.038;10.608;2023-11-19T07:17:44;0.30;;;0.30;;
21430;SDS011;10876;49.038;10.608;2023-11-19T07:20:11;0.32;;;0.30;;
21430;SDS011;10876;49.038;10.608;2023-11-19T07:22:41;0.43;;;0.43;;
21430;SDS011;10876;49.038;10.608;2023-11-19T07:25:08;0.20;;;0.20;;
21430;SDS011;10876;49.038;10.608;2023-11-19T07:27:35;0.70;;;0.70;;
21430;SDS011;10876;49.038;10.608;2023-11-19T07:30:02;2.20;;;1.58;;
21430;SDS011;10876;49.038;10.608;2023-11-19T07:32:33;3.30;;;1.42;;
21430;SDS011;10876;49.038;10.608;2023-11-19T07:35:03;6.25;;;2.35;;
21430;SDS011;10876;49.038;10.608;2023-11-19T07:37:31;4.63;;;2.30;;
21430;SDS011;10876;49.038;10.608;2023-11-19T07:40:00;6.18;;;2.17;;
21430;SDS011;10876;49.038;10.608;2023-11-19T07:42:27;8.20;;;3.58;;
21430;SDS011;10876;49.038;10.608;2023-11-19T07:44:54;3.70;;;1.48;;
21430;SDS011;10876;49.038;10.608;2023-11-19T07:47:22;7.53;;;2.63;;
21430;SDS011;10876;49.038;10.608;2023-11-19T07:49:50;2.30;;;1.45;;
21430;SDS011;10876;49.038;10.608;2023-11-19T07:52:17;0.90;;;0.90;;
21430;SDS011;10876;49.038;10.608;2023-11-19T07:54:47;12.60;;;5.85;;
21430;SDS011;10876;49.038;10.608;2023-11-19T08:00:15;1.55;;;1.33;;
21430;SDS011;10876;49.038;10.608;2023-11-19T08:02:42;0.68;;;0.68;;
21430;SDS011;10876;49.038;10.608;2023-11-19T08:05:10;0.60;;;0.60;;
21430;SDS011;10876;49.038;10.608;2023-11-19T08:07:37;0.50;;;0.50;;
21430;SDS011;10876;49.038;10.608;2023-11-19T08:10:04;6.63;;;2.90;;
21430;SDS011;10876;49.038;10.608;2023-11-19T08:12:36;6.20;;;2.58;;
21430;SDS011;10876;49.038;10.608;2023-11-19T08:15:03;11.10;;;3.33;;
21430;SDS011;10876;49.038;10.608;2023-11-19T08:17:32;2.10;;;1.25;;
21430;SDS011;10876;49.038;10.608;2023-11-19T08:19:58;2.40;;;1.38;;
21430;SDS011;10876;49.038;10.608;2023-11-19T08:22:27;1.05;;;0.63;;
21430;SDS011;10876;49.038;10.608;2023-11-19T08:24:53;3.38;;;1.25;;
21430;SDS011;10876;49.038;10.608;2023-11-19T08:27:20;0.93;;;0.77;;
21430;SDS011;10876;49.038;10.608;2023-11-19T08:29:52;0.70;;;0.60;;
21430;SDS011;10876;49.038;10.608;2023-11-19T08:32:19;1.85;;;0.63;;
21430;SDS011;10876;49.038;10.608;2023-11-19T08:34:45;0.75;;;0.45;;
21430;SDS011;10876;49.038;10.608;2023-11-19T08:37:12;0.47;;;0.47;;
21430;SDS011;10876;49.038;10.608;2023-11-19T08:39:41;0.90;;;0.60;;
21430;SDS011;10876;49.038;10.608;2023-11-19T08:42:07;0.43;;;0.38;;
21430;SDS011;10876;49.038;10.608;2023-11-19T08:44:34;1.27;;;0.40;;
21430;SDS011;10876;49.038;10.608;2023-11-19T08:47:02;0.25;;;0.25;;
21430;SDS011;10876;49.038;10.608;2023-11-19T08:49:29;2.42;;;0.60;;
21430;SDS011;10876;49.038;10.608;2023-11-19T08:51:58;1.33;;;0.63;;
21430;SDS011;10876;49.038;10.608;2023-11-19T08:54:24;2.05;;;1.10;;
21430;SDS011;10876;49.038;10.608;2023-11-19T08:56:52;0.50;;;0.40;;
21430;SDS011;10876;49.038;10.608;2023-11-19T08:59:19;1.60;;;0.60;;
21430;SDS011;10876;49.038;10.608;2023-11-19T09:01:46;4.38;;;0.50;;
21430;SDS011;10876;49.038;10.608;2023-11-19T09:04:12;0.60;;;0.60;;
21430;SDS011;10876;49.038;10.608;2023-11-19T09:06:42;0.50;;;0.40;;
21430;SDS011;10876;49.038;10.608;2023-11-19T09:09:09;0.20;;;0.20;;
21430;SDS011;10876;49.038;10.608;2023-11-19T09:11:35;0.32;;;0.32;;
21430;SDS011;10876;49.038;10.608;2023-11-19T09:14:04;0.20;;;0.20;;
21430;SDS011;10876;49.038;10.608;2023-11-19T09:16:31;0.75;;;0.50;;
21430;SDS011;10876;49.038;10.608;2023-11-19T09:18:57;0.68;;;0.40;;
21430;SDS011;10876;49.038;10.608;2023-11-19T09:21:25;0.50;;;0.50;;
21430;SDS011;10876;49.038;10.608;2023-11-19T09:23:51;0.30;;;0.30;;
21430;SDS011;10876;49.038;10.608;2023-11-19T09:26:19;0.63;;;0.30;;
21430;SDS011;10876;49.038;10.608;2023-11-19T09:28:45;0.22;;;0.22;;
21430;SDS011;10876;49.038;10.608;2023-11-19T09:31:14;0.25;;;0.22;;
21430;SDS011;10876;49.038;10.608;2023-11-19T09:33:41;0.30;;;0.30;;
21430;SDS011;10876;49.038;10.608;2023-11-19T09:36:08;0.30;;;0.30;;
21430;SDS011;10876;49.038;10.608;2023-11-19T09:38:36;0.52;;;0.50;;
21430;SDS011;10876;49.038;10.608;2023-11-19T09:41:03;0.30;;;0.30;;
21430;SDS011;10876;49.038;10.608;2023-11-19T09:43:33;0.30;;;0.30;;
21430;SDS011;10876;49.038;10.608;2023-11-19T09:46:04;0.30;;;0.30;;
21430;SDS011;10876;49.038;10.608;2023-11-19T09:48:33;0.10;;;0.10;;
21430;SDS011;10876;49.038;10.608;2023-11-19T09:51:02;0.20;;;0.20;;
21430;SDS011;10876;49.038;10.608;2023-11-19T09:53:29;0.40;;;0.35;;
21430;SDS011;10876;49.038;10.608;2023-11-19T09:55:56;0.28;;;0.28;;
21430;SDS011;10876;49.038;10.608;2023-11-19T09:58:23;0.63;;;0.43;;
21430;SDS011;10876;49.038;10.608;2023-11-19T10:00:49;0.30;;;0.20;;
21430;SDS011;10876;49.038;10.608;2023-11-19T10:03:17;0.28;;;0.28;;
21430;SDS011;10876;49.038;10.608;2023-11-19T10:05:45;0.20;;;0.20;;
21430;SDS011;10876;49.038;10.608;2023-11-19T10:08:12;0.20;;;0.20;;
21430;SDS011;10876;49.038;10.608;2023-11-19T10:10:39;0.20;;;0.20;;
21430;SDS011;10876;49.038;10.608;2023-11-19T10:13:09;0.20;;;0.20;;
21430;SDS011;10876;49.038;10.608;2023-11-19T10:15:47;0.28;;;0.28;;
21430;SDS011;10876;49.038;10.608;2023-11-19T10:18:14;0.52;;;0.32;;
21430;SDS011;10876;49.038;10.608;2023-11-19T10:20:57;0.82;;;0.50;;
21430;SDS011;10876;49.038;10.608;2023-11-19T10:23:24;0.73;;;0.70;;
21430;SDS011;10876;49.038;10.608;2023-11-19T10:25:52;1.27;;;0.30;;
21430;SDS011;10876;49.038;10.608;2023-11-19T10:28:19;0.93;;;0.45;;
21430;SDS011;10876;49.038;10.608;2023-11-19T10:30:49;0.38;;;0.35;;
21430;SDS011;10876;49.038;10.608;2023-11-19T10:33:15;0.65;;;0.20;;
21430;SDS011;10876;49.038;10.608;2023-11-19T10:35:51;1.75;;;0.52;;
21430;SDS011;10876;49.038;10.608;2023-11-19T10:38:24;1.35;;;0.73;;
21430;SDS011;10876;49.038;10.608;2023-11-19T10:40:52;0.90;;;0.55;;
21430;SDS011;10876;49.038;10.608;2023-11-19T10:43:19;1.95;;;0.95;;
21430;SDS011;10876;49.038;10.608;2023-11-19T10:45:47;0.70;;;0.70;;
21430;SDS011;10876;49.038;10.608;2023-11-19T10:51:02;1.48;;;0.65;;
21430;SDS011;10876;49.038;10.608;2023-11-19T10:53:35;0.98;;;0.77;;
21430;SDS011;10876;49.038;10.608;2023-11-19T10:56:02;0.30;;;0.30;;
21430;SDS011;10876;49.038;10.608;2023-11-19T10:58:31;0.35;;;0.30;;
21430;SDS011;10876;49.038;10.608;2023-11-19T11:01:01;1.70;;;0.75;;
21430;SDS011;10876;49.038;10.608;2023-11-19T11:03:29;0.52;;;0.40;;
21430;SDS011;10876;49.038;10.608;2023-11-19T11:05:58;1.75;;;1.08;;
21430;SDS011;10876;49.038;10.608;2023-11-19T11:08:25;0.35;;;0.35;;
21430;SDS011;10876;49.038;10.608;2023-11-19T11:10:53;0.30;;;0.30;;
21430;SDS011;10876;49.038;10.608;2023-11-19T11:13:21;0.38;;;0.38;;
21430;SDS011;10876;49.038;10.608;2023-11-19T11:15:49;0.90;;;0.40;;
21430;SDS011;10876;49.038;10.608;2023-11-19T11:18:18;0.30;;;0.30;;
21430;SDS011;10876;49.038;10.608;2023-11-19T11:20:46;0.43;;;0.38;;
21430;SDS011;10876;49.038;10.608;2023-11-19T11:26:09;1.20;;;0.63;;
21430;SDS011;10876;49.038;10.608;2023-11-19T11:28:41;1.65;;;0.73;;
21430;SDS011;10876;49.038;10.608;2023-11-19T11:31:11;1.20;;;0.52;;
21430;SDS011;10876;49.038;10.608;2023-11-19T11:33:53;0.38;;;0.38;;
21430;SDS011;10876;49.038;10.608;2023-11-19T11:36:28;0.43;;;0.43;;
21430;SDS011;10876;49.038;10.608;2023-11-19T11:38:58;0.60;;;0.50;;
21430;SDS011;10876;49.038;10.608;2023-11-19T11:41:26;3.20;;;0.82;;
21430;SDS011;10876;49.038;10.608;2023-11-19T11:43:54;0.50;;;0.50;;
21430;SDS011;10876;49.038;10.608;2023-11-19T11:49:07;0.50;;;0.45;;
21430;SDS011;10876;49.038;10.608;2023-11-19T11:51:57;0.40;;;0.40;;
21430;SDS011;10876;49.038;10.608;2023-11-19T11:54:28;1.00;;;0.77;;
21430;SDS011;10876;49.038;10.608;2023-11-19T12:02:19;1.85;;;1.15;;
21430;SDS011;10876;49.038;10.608;2023-11-19T12:04:46;3.83;;;0.60;;
21430;SDS011;10876;49.038;10.608;2023-11-19T12:07:15;0.40;;;0.40;;
21430;SDS011;10876;49.038;10.608;2023-11-19T12:09:42;0.47;;;0.43;;
21430;SDS011;10876;49.038;10.608;2023-11-19T12:12:20;0.38;;;0.38;;
21430;SDS011;10876;49.038;10.608;2023-11-19T12:14:59;0.45;;;0.45;;
21430;SDS011;10876;49.038;10.608;2023-11-19T12:20:12;1.83;;;0.32;;
21430;SDS011;10876;49.038;10.608;2023-11-19T12:22:39;0.77;;;0.38;;
21430;SDS011;10876;49.038;10.608;2023-11-19T12:25:08;0.40;;;0.40;;
21430;SDS011;10876;49.038;10.608;2023-11-19T12:27:35;1.73;;;0.40;;
21430;SDS011;10876;49.038;10.608;2023-11-19T12:30:03;1.38;;;0.30;;
21430;SDS011;10876;49.038;10.608;2023-11-19T12:32:40;0.45;;;0.43;;
21430;SDS011;10876;49.038;10.608;2023-11-19T12:35:07;1.15;;;0.30;;
21430;SDS011;10876;49.038;10.608;2023-11-19T12:37:44;1.65;;;0.40;;
21430;SDS011;10876;49.038;10.608;2023-11-19T12:40:14;1.08;;;0.30;;
21430;SDS011;10876;49.038;10.608;2023-11-19T12:42:42;0.28;;;0.25;;
21430;SDS011;10876;49.038;10.608;2023-11-19T12:45:09;1.27;;;0.50;;
21430;SDS011;10876;49.038;10.608;2023-11-19T12:47:37;1.45;;;0.57;;
21430;SDS011;10876;49.038;10.608;2023-11-19T12:50:04;0.75;;;0.40;;
21430;SDS011;10876;49.038;10.608;2023-11-19T12:52:32;0.30;;;0.30;;
21430;SDS011;10876;49.038;10.608;2023-11-19T12:55:00;1.88;;;1.02;;
21430;SDS011;10876;49.038;10.608;2023-11-19T12:57:36;0.63;;;0.40;;
21430;SDS011;10876;49.038;10.608;2023-11-19T13:00:03;6.72;;;0.80;;
21430;SDS011;10876;49.038;10.608;2023-11-19T13:02:44;1.67;;;0.90;;
21430;SDS011;10876;49.038;10.608;2023-11-19T13:05:24;0.50;;;0.50;;
21430;SDS011;10876;49.038;10.608;2023-11-19T13:07:58;1.33;;;0.38;;
21430;SDS011;10876;49.038;10.608;2023-11-19T13:10:28;3.10;;;0.57;;
21430;SDS011;10876;49.038;10.608;2023-11-19T13:13:04;0.30;;;0.30;;
21430;SDS011;10876;49.038;10.608;2023-11-19T13:15:31;0.90;;;0.65;;
21430;SDS011;10876;49.038;10.608;2023-11-19T13:17:58;0.20;;;0.20;;
21430;SDS011;10876;49.038;10.608;2023-11-19T13:20:25;0.35;;;0.35;;
21430;SDS011;10876;49.038;10.608;2023-11-19T13:22:55;0.30;;;0.30;;
21430;SDS011;10876;49.038;10.608;2023-11-19T13:25:22;0.98;;;0.40;;
21430;SDS011;10876;49.038;10.608;2023-11-19T13:27:50;1.58;;;0.70;;
21430;SDS011;10876;49.038;10.608;2023-11-19T13:30:17;0.95;;;0.68;;
21430;SDS011;10876;49.038;10.608;2023-11-19T13:32:44;0.82;;;0.40;;
21430;SDS011;10876;49.038;10.608;2023-11-19T13:35:11;1.92;;;0.47;;
21430;SDS011;10876;49.038;10.608;2023-11-19T13:37:38;1.13;;;0.43;;
21430;SDS011;10876;49.038;10.608;2023-11-19T13:40:13;1.27;;;0.60;;
21430;SDS011;10876;49.038;10.608;2023-11-19T13:42:40;0.68;;;0.38;;
21430;SDS011;10876;49.038;10.608;2023-11-19T13:45:09;0.30;;;0.30;;
21430;SDS011;10876;49.038;10.608;2023-11-19T13:47:39;1.05;;;0.30;;
21430;SDS011;10876;49.038;10.608;2023-11-19T13:50:07;0.77;;;0.55;;
21430;SDS011;10876;49.038;10.608;2023-11-19T13:52:34;0.65;;;0.50;;
21430;SDS011;10876;49.038;10.608;2023-11-19T13:55:01;3.28;;;0.60;;
21430;SDS011;10876;49.038;10.608;2023-11-19T13:57:29;0.43;;;0.40;;
21430;SDS011;10876;49.038;10.608;2023-11-19T13:59:56;0.82;;;0.45;;
21430;SDS011;10876;49.038;10.608;2023-11-19T14:02:25;0.50;;;0.45;;
21430;SDS011;10876;49.038;10.608;2023-11-19T14:04:51;0.30;;;0.30;;
21430;SDS011;10876;49.038;10.608;2023-11-19T14:07:20;2.80;;;0.73;;
21430;SDS011;10876;49.038;10.608;2023-11-19T14:09:49;0.75;;;0.45;;
21430;SDS011;10876;49.038;10.608;2023-11-19T14:12:16;0.43;;;0.43;;
21430;SDS011;10876;49.038;10.608;2023-11-19T14:14:43;0.50;;;0.50;;
21430;SDS011;10876;49.038;10.608;2023-11-19T14:17:10;4.05;;;1.08;;
21430;SDS011;10876;49.038;10.608;2023-11-19T14:19:39;1.02;;;0.70;;
21430;SDS011;10876;49.038;10.608;2023-11-19T14:22:06;1.70;;;0.50;;
21430;SDS011;10876;49.038;10.608;2023-11-19T14:24:33;0.50;;;0.50;;
21430;SDS011;10876;49.038;10.608;2023-11-19T14:27:01;0.55;;;0.43;;
21430;SDS011;10876;49.038;10.608;2023-11-19T14:29:32;1.63;;;1.13;;
21430;SDS011;10876;49.038;10.608;2023-11-19T14:32:00;0.55;;;0.40;;
21430;SDS011;10876;49.038;10.608;2023-11-19T14:34:28;0.55;;;0.30;;
21430;SDS011;10876;49.038;10.608;2023-11-19T14:36:59;1.15;;;0.63;;
21430;SDS011;10876;49.038;10.608;2023-11-19T14:39:26;0.68;;;0.68;;
21430;SDS011;10876;49.038;10.608;2023-11-19T14:41:54;0.55;;;0.55;;
21430;SDS011;10876;49.038;10.608;2023-11-19T14:44:26;0.35;;;0.32;;
21430;SDS011;10876;49.038;10.608;2023-11-19T14:46:54;0.30;;;0.28;;
21430;SDS011;10876;49.038;10.608;2023-11-19T14:49:21;0.32;;;0.32;;
21430;SDS011;10876;49.038;10.608;2023-11-19T14:51:49;1.05;;;0.70;;
21430;SDS011;10876;49.038;10.608;2023-11-19T14:54:17;2.13;;;0.43;;
21430;SDS011;10876;49.038;10.608;2023-11-19T14:56:44;0.77;;;0.60;;
21430;SDS011;10876;49.038;10.608;2023-11-19T14:59:10;0.55;;;0.50;;
21430;SDS011;10876;49.038;10.608;2023-11-19T15:01:37;1.75;;;1.05;;
21430;SDS011;10876;49.038;10.608;2023-11-19T15:04:05;0.28;;;0.28;;
21430;SDS011;10876;49.038;10.608;2023-11-19T15:06:32;0.32;;;0.32;;